Time;durP1;ratioP1;P1;durP2;ratioP2;P2;SDS_P1;SDS_P2;PMS_P1;PMS_P2;Temp;Humidity;BMP_temperature;BMP_pressure;BME280_temperature;BME280_humidity;BME280_pressure;Samples;Min_cycle;Max_cycle;Signal;HPM_P1;HPM_P2
2023/11/13 00:00:37;;;;;;;5.28;2.50;;;4.40;99.90;;;;;;4997870;28;20482;-91
2023/11/13 00:03:03;;;;;;;4.22;2.30;;;4.40;99.90;;;;;;4987508;28;20034;-85
2023/11/13 00:05:30;;;;;;;4.72;2.13;;;4.50;99.90;;;;;;4970336;28;20507;-85
2023/11/13 00:07:57;;;;;;;4.20;2.50;;;4.50;99.90;;;;;;4986388;28;20062;-88
2023/11/13 00:10:23;;;;;;;6.22;2.88;;;4.40;99.90;;;;;;4970723;28;20458;-92
2023/11/13 00:12:49;;;;;;;5.20;2.30;;;4.30;99.90;;;;;;4983916;28;20023;-84
2023/11/13 00:15:14;;;;;;;4.50;2.17;;;4.20;99.90;;;;;;4987020;28;20387;-85
2023/11/13 00:17:40;;;;;;;4.72;2.70;;;4.20;99.90;;;;;;4989588;28;20041;-91
2023/11/13 00:20:06;;;;;;;3.63;2.20;;;4.10;99.90;;;;;;4985771;28;20065;-92
2023/11/13 00:22:32;;;;;;;4.15;2.20;;;4.00;99.90;;;;;;4987577;28;20061;-85
2023/11/13 00:24:58;;;;;;;4.95;2.78;;;4.10;99.90;;;;;;4985701;28;20105;-87
2023/11/13 00:27:24;;;;;;;6.85;2.42;;;4.00;99.90;;;;;;4984992;28;20031;-91
2023/11/13 00:29:50;;;;;;;4.20;2.22;;;4.00;99.90;;;;;;4986744;28;20085;-88
2023/11/13 00:32:16;;;;;;;3.88;2.05;;;4.00;99.90;;;;;;4971590;28;20029;-88
2023/11/13 00:34:41;;;;;;;3.15;1.75;;;4.00;99.90;;;;;;4968193;28;20109;-87
2023/11/13 00:37:07;;;;;;;4.63;2.10;;;4.10;99.90;;;;;;4968597;28;20379;-89
2023/11/13 00:39:33;;;;;;;4.65;2.17;;;4.00;99.90;;;;;;4970448;28;20023;-86
2023/11/13 00:41:59;;;;;;;3.83;2.10;;;4.20;99.90;;;;;;5001918;28;20101;-90
2023/11/13 00:44:25;;;;;;;3.08;1.42;;;4.10;99.90;;;;;;4997711;28;20394;-87
2023/11/13 00:46:51;;;;;;;4.55;2.30;;;4.10;99.90;;;;;;4987572;28;20045;-89
2023/11/13 00:49:17;;;;;;;2.83;1.63;;;4.10;99.90;;;;;;4988552;28;20084;-89
2023/11/13 00:51:43;;;;;;;3.15;1.98;;;4.00;99.90;;;;;;4972724;28;20027;-88
2023/11/13 00:54:12;;;;;;;4.38;1.83;;;4.00;99.90;;;;;;5001374;28;20035;-88
2023/11/13 00:56:38;;;;;;;4.40;1.73;;;4.10;99.90;;;;;;4972434;28;20061;-91
2023/11/13 00:59:04;;;;;;;6.78;2.08;;;4.10;99.90;;;;;;4970098;28;20058;-92
2023/11/13 01:01:29;;;;;;;3.92;2.45;;;4.20;99.90;;;;;;4986493;28;20027;-86
2023/11/13 01:03:55;;;;;;;4.15;2.22;;;4.20;99.90;;;;;;4987612;28;20023;-90
2023/11/13 01:06:22;;;;;;;3.10;2.00;;;4.10;99.90;;;;;;4970945;28;20125;-86
2023/11/13 01:08:48;;;;;;;3.65;1.88;;;4.10;99.90;;;;;;4986540;28;20553;-87
2023/11/13 01:11:14;;;;;;;4.43;1.60;;;4.10;99.90;;;;;;4988707;28;20030;-85
2023/11/13 01:13:42;;;;;;;5.13;1.52;;;4.00;99.90;;;;;;4974167;28;20030;-85
2023/11/13 01:16:08;;;;;;;3.85;1.77;;;4.00;99.90;;;;;;4986253;28;20018;-85
2023/11/13 01:18:34;;;;;;;3.33;1.70;;;4.00;99.90;;;;;;4985588;28;20417;-84
2023/11/13 01:21:00;;;;;;;3.63;1.75;;;3.90;99.90;;;;;;4973301;28;20030;-85
2023/11/13 01:23:26;;;;;;;4.40;1.42;;;3.90;99.90;;;;;;4983503;28;20501;-86
2023/11/13 01:25:53;;;;;;;3.97;1.50;;;4.00;99.90;;;;;;4989103;28;20114;-84
2023/11/13 01:28:19;;;;;;;4.82;1.95;;;4.00;99.90;;;;;;4968019;28;20406;-84
2023/11/13 01:30:44;;;;;;;3.42;1.52;;;4.00;99.90;;;;;;4984963;28;20037;-86
2023/11/13 01:33:11;;;;;;;7.78;1.55;;;3.90;99.90;;;;;;5002025;28;20026;-84
2023/11/13 01:35:37;;;;;;;2.00;1.15;;;4.00;99.90;;;;;;4968821;28;20403;-89
2023/11/13 01:38:03;;;;;;;3.88;1.55;;;4.10;99.90;;;;;;4998646;28;20026;-86
2023/11/13 01:40:28;;;;;;;3.80;1.70;;;4.10;99.90;;;;;;4978570;28;20055;-85
2023/11/13 01:42:54;;;;;;;3.97;1.40;;;4.10;99.90;;;;;;4988947;28;20050;-85
2023/11/13 01:45:21;;;;;;;3.00;1.63;;;4.10;99.90;;;;;;4968264;28;20027;-90
2023/11/13 01:47:47;;;;;;;3.83;1.88;;;4.10;99.90;;;;;;4987045;28;20022;-84
2023/11/13 01:50:14;;;;;;;4.18;1.80;;;4.00;99.90;;;;;;4982668;28;20045;-88
2023/11/13 01:52:41;;;;;;;3.97;1.58;;;4.00;99.90;;;;;;4986945;28;20045;-86
2023/11/13 01:55:09;;;;;;;4.28;1.63;;;4.00;99.90;;;;;;4970961;28;20562;-86
2023/11/13 01:57:36;;;;;;;4.05;1.60;;;4.00;99.90;;;;;;4972063;28;20027;-84
2023/11/13 02:00:04;;;;;;;3.20;1.20;;;3.90;99.90;;;;;;4988751;28;20034;-86
2023/11/13 02:02:39;;;;;;;3.90;1.85;;;4.00;99.90;;;;;;4988443;28;20053;-85
2023/11/13 02:05:06;;;;;;;6.70;1.92;;;4.10;99.90;;;;;;4987618;28;20026;-90
2023/11/13 02:07:31;;;;;;;4.10;1.63;;;4.20;99.90;;;;;;5000140;28;20045;-88
2023/11/13 02:09:57;;;;;;;2.63;1.17;;;4.20;99.90;;;;;;4982861;28;20110;-89
2023/11/13 02:12:26;;;;;;;3.55;1.77;;;4.30;99.90;;;;;;4982492;28;20081;-84
2023/11/13 02:14:51;;;;;;;4.72;1.40;;;4.20;99.90;;;;;;4999773;28;20027;-88
2023/11/13 02:17:17;;;;;;;3.28;1.30;;;4.20;99.90;;;;;;5000275;28;20022;-89
2023/11/13 02:19:45;;;;;;;3.78;2.13;;;4.30;99.90;;;;;;4983238;28;20026;-89
2023/11/13 02:22:11;;;;;;;4.05;1.35;;;4.20;99.90;;;;;;4968231;28;20022;-84
2023/11/13 02:24:37;;;;;;;3.67;1.30;;;4.30;99.90;;;;;;4987643;28;20038;-83
2023/11/13 02:27:06;;;;;;;4.40;1.27;;;4.30;99.90;;;;;;4969744;28;20034;-87
2023/11/13 02:29:31;;;;;;;3.35;1.42;;;4.30;99.90;;;;;;4974206;28;20446;-87
2023/11/13 02:31:59;;;;;;;2.78;1.33;;;4.40;99.90;;;;;;4969721;28;20479;-85
2023/11/13 02:34:24;;;;;;;5.32;1.42;;;4.40;99.90;;;;;;4986847;28;20041;-87
2023/11/13 02:36:52;;;;;;;3.20;1.17;;;4.40;99.90;;;;;;5002733;28;20134;-85
2023/11/13 02:39:19;;;;;;;2.47;1.13;;;4.50;99.90;;;;;;4969849;28;20073;-90
2023/11/13 02:41:46;;;;;;;2.90;1.10;;;4.50;99.90;;;;;;4968162;28;20065;-89
2023/11/13 02:44:12;;;;;;;2.97;1.40;;;4.50;99.90;;;;;;4968220;28;20062;-91
2023/11/13 02:46:38;;;;;;;2.92;1.08;;;4.50;99.90;;;;;;4969376;28;20062;-90
2023/11/13 02:49:04;;;;;;;3.22;1.38;;;4.60;99.90;;;;;;5001420;28;20069;-87
2023/11/13 02:51:30;;;;;;;2.72;1.10;;;4.60;99.90;;;;;;4984213;28;20031;-92
2023/11/13 02:53:56;;;;;;;3.70;1.23;;;4.50;99.90;;;;;;4967252;28;20095;-93
2023/11/13 02:56:22;;;;;;;2.08;0.98;;;4.60;99.90;;;;;;4981369;28;20031;-87
2023/11/13 02:58:48;;;;;;;3.08;1.10;;;4.60;99.90;;;;;;5001244;28;20030;-87
2023/11/13 03:01:15;;;;;;;4.07;1.38;;;4.70;99.90;;;;;;4972610;28;20430;-91
2023/11/13 03:03:42;;;;;;;3.72;1.38;;;4.70;99.90;;;;;;4986206;28;20031;-85
2023/11/13 03:06:07;;;;;;;3.03;1.27;;;4.70;99.90;;;;;;4969201;28;20133;-86
2023/11/13 03:08:33;;;;;;;3.35;1.00;;;4.70;99.90;;;;;;4982898;28;20178;-89
2023/11/13 03:10:59;;;;;;;3.03;1.05;;;4.70;99.90;;;;;;4983389;28;20472;-91
2023/11/13 03:13:24;;;;;;;2.75;1.10;;;4.80;99.90;;;;;;4985619;28;20453;-90
2023/11/13 03:15:50;;;;;;;3.15;1.15;;;4.80;99.90;;;;;;4988394;28;20590;-91
2023/11/13 03:18:16;;;;;;;3.58;1.25;;;4.80;99.90;;;;;;4969627;28;20026;-86
2023/11/13 03:20:44;;;;;;;2.90;1.42;;;4.80;99.90;;;;;;4983084;28;20113;-86
2023/11/13 03:23:11;;;;;;;5.13;1.70;;;4.80;99.90;;;;;;4971287;28;20528;-87
2023/11/13 03:25:36;;;;;;;5.32;1.95;;;4.90;99.90;;;;;;4970753;28;20030;-91
2023/11/13 03:28:02;;;;;;;3.20;1.25;;;4.90;99.90;;;;;;4984138;28;20026;-85
2023/11/13 03:30:28;;;;;;;3.25;1.33;;;4.90;99.90;;;;;;4998510;28;20038;-86
2023/11/13 03:32:53;;;;;;;2.80;1.60;;;4.90;99.90;;;;;;4984136;28;20030;-85
2023/11/13 03:35:19;;;;;;;3.60;1.52;;;4.90;99.90;;;;;;4983315;28;20538;-85
2023/11/13 03:37:46;;;;;;;4.18;1.60;;;4.90;99.90;;;;;;4967810;28;20026;-85
2023/11/13 03:40:12;;;;;;;3.03;1.20;;;4.90;99.90;;;;;;4982767;28;20063;-88
2023/11/13 03:42:38;;;;;;;4.32;1.50;;;5.00;99.90;;;;;;4999828;28;20027;-91
2023/11/13 03:45:04;;;;;;;3.08;1.50;;;5.10;99.90;;;;;;4965746;28;20042;-85
2023/11/13 03:47:31;;;;;;;3.15;1.35;;;5.00;99.90;;;;;;4969589;28;20027;-91
2023/11/13 03:49:57;;;;;;;2.53;0.98;;;5.00;99.90;;;;;;4969268;28;20511;-87
2023/11/13 03:52:22;;;;;;;2.88;1.23;;;5.10;99.90;;;;;;4986495;28;20026;-86
2023/11/13 03:54:48;;;;;;;2.55;1.00;;;5.10;99.90;;;;;;5000519;28;20398;-87
2023/11/13 03:57:14;;;;;;;3.85;1.10;;;5.10;99.90;;;;;;4983064;28;20035;-88
2023/11/13 03:59:39;;;;;;;3.17;1.58;;;5.20;99.90;;;;;;4984990;28;20042;-84
2023/11/13 04:02:05;;;;;;;3.45;1.23;;;5.20;99.90;;;;;;4983001;28;20402;-92
2023/11/13 04:04:31;;;;;;;2.90;1.25;;;5.30;99.90;;;;;;4970406;28;20503;-89
2023/11/13 04:06:56;;;;;;;4.57;1.52;;;5.30;99.90;;;;;;4997699;28;20097;-93
2023/11/13 04:09:22;;;;;;;3.05;1.35;;;5.30;99.90;;;;;;4969829;28;20038;-89
2023/11/13 04:11:48;;;;;;;3.22;1.70;;;5.30;99.90;;;;;;4988250;28;20090;-88
2023/11/13 04:14:13;;;;;;;4.10;1.17;;;5.30;99.90;;;;;;4990495;28;20030;-89
2023/11/13 04:16:39;;;;;;;2.63;1.10;;;5.30;99.90;;;;;;4991105;28;20081;-92
2023/11/13 04:19:05;;;;;;;2.95;1.20;;;5.30;99.90;;;;;;4990953;28;20101;-91
2023/11/13 04:21:31;;;;;;;3.42;1.30;;;5.30;99.90;;;;;;4988355;28;20058;-91
2023/11/13 04:24:01;;;;;;;3.60;1.40;;;5.30;99.90;;;;;;4982904;28;20118;-88
2023/11/13 04:26:27;;;;;;;4.60;1.15;;;5.40;99.90;;;;;;4988182;28;20073;-92
2023/11/13 04:28:53;;;;;;;3.65;0.98;;;5.40;99.90;;;;;;4972061;28;20475;-88
2023/11/13 04:31:19;;;;;;;3.05;1.50;;;5.40;99.90;;;;;;5004584;28;20446;-87
2023/11/13 04:33:45;;;;;;;3.30;1.35;;;5.40;99.90;;;;;;4974714;28;20029;-87
2023/11/13 04:36:11;;;;;;;2.95;1.20;;;5.50;99.90;;;;;;4972378;28;20034;-93
2023/11/13 04:38:40;;;;;;;2.65;1.20;;;5.50;99.90;;;;;;4971017;28;20399;-85
2023/11/13 04:41:06;;;;;;;4.07;1.58;;;5.50;99.90;;;;;;4970630;28;20027;-90
2023/11/13 04:43:32;;;;;;;2.95;1.50;;;5.50;99.90;;;;;;4985498;28;20038;-87
2023/11/13 04:45:58;;;;;;;3.10;1.60;;;5.50;99.90;;;;;;5001507;28;20488;-90
2023/11/13 04:48:24;;;;;;;2.92;1.20;;;5.60;99.90;;;;;;4974332;28;20030;-90
2023/11/13 04:50:51;;;;;;;2.85;1.10;;;5.50;99.90;;;;;;4990156;28;20038;-90
2023/11/13 04:53:16;;;;;;;2.67;1.20;;;5.50;99.90;;;;;;4986690;28;20030;-87
2023/11/13 04:55:42;;;;;;;4.28;1.20;;;5.60;99.90;;;;;;4987447;28;20035;-90
2023/11/13 04:58:08;;;;;;;2.80;1.10;;;5.60;99.90;;;;;;4977225;28;20094;-89
2023/11/13 05:00:34;;;;;;;2.25;1.00;;;5.70;99.90;;;;;;4987769;28;20022;-91
2023/11/13 05:02:59;;;;;;;4.88;1.35;;;5.60;99.90;;;;;;4984605;28;20379;-88
2023/11/13 05:05:26;;;;;;;4.35;1.58;;;5.60;99.90;;;;;;4988329;28;20485;-92
2023/11/13 05:07:52;;;;;;;4.70;1.42;;;5.70;99.90;;;;;;4984368;28;20027;-87
2023/11/13 05:10:19;;;;;;;3.00;1.50;;;5.70;99.90;;;;;;4999452;28;20042;-88
2023/11/13 05:12:44;;;;;;;2.88;1.23;;;5.60;99.90;;;;;;4972346;28;20038;-88
2023/11/13 05:15:13;;;;;;;2.63;1.23;;;5.70;99.90;;;;;;4984175;28;20031;-86
2023/11/13 05:17:39;;;;;;;3.38;1.38;;;5.70;99.90;;;;;;4983018;28;20058;-90
2023/11/13 05:20:06;;;;;;;3.05;1.52;;;5.70;99.90;;;;;;4983465;28;20027;-90
2023/11/13 05:22:33;;;;;;;4.28;1.30;;;5.80;99.90;;;;;;4986738;28;20026;-88
2023/11/13 05:24:59;;;;;;;3.10;1.50;;;5.80;99.90;;;;;;4973070;28;20088;-89
2023/11/13 05:27:25;;;;;;;3.72;1.30;;;5.80;99.90;;;;;;4971390;28;20114;-88
2023/11/13 05:29:52;;;;;;;3.70;1.27;;;5.80;99.90;;;;;;4973468;28;20038;-92
2023/11/13 05:32:18;;;;;;;2.35;1.27;;;5.80;99.90;;;;;;4986928;28;20479;-87
2023/11/13 05:34:44;;;;;;;3.40;1.38;;;5.80;99.90;;;;;;4970940;28;20037;-88
2023/11/13 05:37:11;;;;;;;2.88;1.30;;;5.90;99.90;;;;;;4988076;28;20482;-87
2023/11/13 05:39:37;;;;;;;2.75;1.50;;;5.90;99.90;;;;;;4970574;28;20042;-91
2023/11/13 05:42:03;;;;;;;3.80;1.20;;;5.90;99.90;;;;;;4989499;28;20045;-86
2023/11/13 05:44:29;;;;;;;4.00;1.85;;;5.90;99.90;;;;;;4972038;28;20316;-87
2023/11/13 05:46:55;;;;;;;3.83;1.70;;;6.00;99.90;;;;;;4973614;28;20023;-90
2023/11/13 05:49:21;;;;;;;3.65;1.40;;;6.00;99.90;;;;;;4984864;28;20478;-87
2023/11/13 05:51:47;;;;;;;4.03;1.40;;;5.90;99.90;;;;;;4984168;28;20466;-87
2023/11/13 05:54:12;;;;;;;3.05;1.60;;;6.00;99.90;;;;;;5002422;28;20038;-89
2023/11/13 05:56:38;;;;;;;3.92;1.77;;;6.00;99.90;;;;;;4969809;28;20030;-90
2023/11/13 05:59:04;;;;;;;4.05;1.83;;;6.00;99.90;;;;;;4970730;28;20042;-88
2023/11/13 06:01:31;;;;;;;4.30;1.90;;;6.00;99.90;;;;;;4988115;28;20138;-85
2023/11/13 06:03:58;;;;;;;5.20;2.58;;;6.00;99.90;;;;;;4969675;28;20035;-87
2023/11/13 06:06:24;;;;;;;3.10;2.10;;;6.10;99.90;;;;;;5008750;28;20038;-86
2023/11/13 06:08:49;;;;;;;4.53;2.75;;;6.10;99.90;;;;;;4969966;28;20026;-89
2023/11/13 06:11:15;;;;;;;4.95;2.67;;;6.10;99.90;;;;;;4985423;28;20460;-88
2023/11/13 06:13:41;;;;;;;3.88;2.15;;;6.10;99.90;;;;;;4985875;28;20379;-90
2023/11/13 06:16:09;;;;;;;3.45;1.92;;;6.10;99.90;;;;;;4988114;28;20710;-87
2023/11/13 06:18:46;;;;;;;5.65;2.05;;;6.10;99.90;;;;;;5002060;28;20087;-91
2023/11/13 06:21:11;;;;;;;4.70;2.90;;;6.20;99.90;;;;;;4970791;28;20439;-89
2023/11/13 06:23:37;;;;;;;5.03;2.70;;;6.20;99.90;;;;;;5001476;28;20173;-89
2023/11/13 06:26:05;;;;;;;4.13;2.88;;;6.20;99.90;;;;;;4987858;28;20026;-86
2023/11/13 06:28:30;;;;;;;4.88;2.90;;;6.20;99.90;;;;;;4967101;28;20522;-86
2023/11/13 06:30:56;;;;;;;5.13;3.30;;;6.20;99.90;;;;;;4967903;28;20030;-85
2023/11/13 06:33:22;;;;;;;5.00;2.58;;;6.20;99.90;;;;;;4966161;28;20479;-85
2023/11/13 06:35:48;;;;;;;3.35;1.73;;;6.20;99.90;;;;;;4984780;28;20031;-86
2023/11/13 06:38:15;;;;;;;4.97;2.97;;;6.20;99.90;;;;;;4986671;28;20033;-88
2023/11/13 06:40:42;;;;;;;4.55;2.72;;;6.30;99.90;;;;;;4987942;28;20022;-87
2023/11/13 06:43:08;;;;;;;6.03;3.35;;;6.20;99.90;;;;;;4985015;28;20455;-85
2023/11/13 06:45:34;;;;;;;5.38;4.05;;;6.30;99.90;;;;;;4984907;28;20018;-85
2023/11/13 06:48:00;;;;;;;5.43;3.28;;;6.30;99.90;;;;;;4966117;28;20058;-86
2023/11/13 06:50:26;;;;;;;5.40;3.28;;;6.40;99.90;;;;;;4985364;28;20201;-87
2023/11/13 06:52:53;;;;;;;5.80;4.10;;;6.40;99.90;;;;;;4986705;28;20035;-86
2023/11/13 06:55:19;;;;;;;5.13;3.70;;;6.40;99.90;;;;;;4985104;28;20038;-87
2023/11/13 06:57:45;;;;;;;4.60;2.88;;;6.40;99.90;;;;;;4969630;28;20470;-87
2023/11/13 07:00:13;;;;;;;7.03;3.95;;;6.50;99.90;;;;;;4981526;28;20035;-89
2023/11/13 07:02:43;;;;;;;5.13;3.38;;;6.40;99.90;;;;;;4966598;28;20505;-85
2023/11/13 07:05:10;;;;;;;4.57;3.05;;;6.50;99.90;;;;;;4971788;28;20043;-84
2023/11/13 07:07:38;;;;;;;7.03;3.83;;;6.50;99.90;;;;;;4987231;28;20049;-86
2023/11/13 07:10:06;;;;;;;6.53;3.45;;;6.50;99.90;;;;;;4968891;28;20044;-88
2023/11/13 07:12:33;;;;;;;7.13;3.60;;;6.60;99.90;;;;;;4987901;28;20077;-88
2023/11/13 07:15:02;;;;;;;6.20;3.47;;;6.60;99.90;;;;;;4969914;28;20034;-90
2023/11/13 07:17:32;;;;;;;6.68;3.53;;;6.60;99.90;;;;;;4982075;28;20018;-85
2023/11/13 07:19:57;;;;;;;5.68;2.42;;;6.60;99.90;;;;;;4988395;28;20026;-86
2023/11/13 07:22:25;;;;;;;5.28;2.60;;;6.60;99.90;;;;;;4987111;28;20110;-85
2023/11/13 07:24:52;;;;;;;5.38;3.55;;;6.60;99.90;;;;;;4971163;28;20351;-85
2023/11/13 07:27:17;;;;;;;6.57;3.88;;;6.70;99.90;;;;;;4985079;28;20041;-89
2023/11/13 07:29:43;;;;;;;6.18;3.80;;;6.80;99.90;;;;;;4970379;28;20035;-87
2023/11/13 07:32:09;;;;;;;6.22;4.20;;;6.80;99.90;;;;;;4983380;28;20027;-89
2023/11/13 07:34:34;;;;;;;6.18;3.55;;;6.80;99.90;;;;;;4985374;28;20038;-85
2023/11/13 07:37:01;;;;;;;5.03;3.15;;;6.80;99.90;;;;;;4984461;28;20372;-86
2023/11/13 07:39:27;;;;;;;5.78;3.35;;;6.80;99.90;;;;;;4985229;28;20027;-87
2023/11/13 07:41:57;;;;;;;4.78;3.15;;;6.90;99.90;;;;;;4987298;28;20114;-90
2023/11/13 07:44:24;;;;;;;4.65;2.63;;;6.80;99.90;;;;;;4978702;28;20030;-84
2023/11/13 07:46:51;;;;;;;4.68;2.78;;;6.90;99.90;;;;;;4978823;28;20038;-84
2023/11/13 07:49:17;;;;;;;4.20;2.80;;;6.90;99.90;;;;;;4967621;28;20033;-86
2023/11/13 07:51:43;;;;;;;5.93;3.47;;;6.90;99.90;;;;;;4969613;28;20353;-88
2023/11/13 07:54:09;;;;;;;5.50;3.38;;;7.00;99.90;;;;;;4968017;28;20030;-88
2023/11/13 07:56:38;;;;;;;5.30;3.45;;;7.00;99.90;;;;;;4969435;28;20041;-86
2023/11/13 07:59:08;;;;;;;4.15;1.90;;;7.10;99.90;;;;;;4968396;28;20054;-89
2023/11/13 08:01:34;;;;;;;4.43;2.67;;;7.10;99.90;;;;;;4982623;28;20030;-84
2023/11/13 08:04:01;;;;;;;4.20;2.83;;;7.20;99.90;;;;;;4985612;28;20057;-88
2023/11/13 08:06:26;;;;;;;4.90;2.60;;;7.20;99.90;;;;;;4968252;28;20050;-88
2023/11/13 08:08:52;;;;;;;4.07;2.45;;;7.20;99.90;;;;;;4982054;28;20039;-86
2023/11/13 08:11:18;;;;;;;5.22;3.75;;;7.20;99.90;;;;;;4984751;28;20039;-87
2023/11/13 08:13:44;;;;;;;5.55;3.47;;;7.30;99.90;;;;;;4985630;28;20070;-83
2023/11/13 08:16:10;;;;;;;3.83;2.33;;;7.40;99.90;;;;;;4965201;28;20038;-85
2023/11/13 08:18:39;;;;;;;4.18;2.28;;;7.30;99.90;;;;;;4983716;28;20030;-88
2023/11/13 08:21:06;;;;;;;4.07;2.80;;;7.30;99.90;;;;;;4980837;28;20142;-86
2023/11/13 08:23:31;;;;;;;2.63;1.77;;;7.40;99.90;;;;;;4997405;28;20352;-88
2023/11/13 08:25:59;;;;;;;3.55;1.92;;;7.50;99.90;;;;;;4970435;28;20026;-88
2023/11/13 08:28:26;;;;;;;5.07;3.00;;;7.50;99.90;;;;;;4996293;28;20039;-88
2023/11/13 08:30:52;;;;;;;3.13;1.65;;;7.70;99.90;;;;;;4984048;28;20491;-86
2023/11/13 08:33:18;;;;;;;3.53;1.65;;;7.70;99.90;;;;;;4993741;28;20435;-88
2023/11/13 08:35:45;;;;;;;4.65;2.80;;;7.70;99.90;;;;;;4996057;28;20086;-88
2023/11/13 08:38:11;;;;;;;3.72;1.80;;;7.90;99.90;;;;;;4970571;28;20030;-86
2023/11/13 08:40:36;;;;;;;3.80;1.45;;;7.80;99.90;;;;;;4985946;28;20035;-87
2023/11/13 08:43:06;;;;;;;4.10;1.70;;;7.80;99.90;;;;;;4983103;28;20023;-89
2023/11/13 08:45:32;;;;;;;2.80;1.30;;;7.90;99.90;;;;;;4965169;28;20157;-87
2023/11/13 08:47:59;;;;;;;3.20;1.13;;;7.90;99.90;;;;;;4970970;28;20030;-87
2023/11/13 08:50:25;;;;;;;2.45;1.13;;;7.90;99.90;;;;;;4965328;28;20042;-88
2023/11/13 08:52:53;;;;;;;2.80;1.00;;;8.00;99.90;;;;;;4983183;28;20026;-88
2023/11/13 08:55:20;;;;;;;3.15;1.27;;;8.00;99.90;;;;;;4983019;28;20497;-85
2023/11/13 08:57:49;;;;;;;2.15;1.00;;;8.00;99.90;;;;;;4976853;28;20035;-87
2023/11/13 09:00:23;;;;;;;3.42;0.88;;;8.10;99.90;;;;;;4981852;28;20050;-88
2023/11/13 09:02:49;;;;;;;2.28;1.10;;;8.20;99.90;;;;;;4979330;28;20031;-87
2023/11/13 09:05:15;;;;;;;2.13;1.00;;;8.20;99.90;;;;;;4983422;28;20031;-89
2023/11/13 09:07:44;;;;;;;2.10;0.80;;;8.20;99.90;;;;;;4966372;28;20038;-85
2023/11/13 09:10:10;;;;;;;2.00;1.00;;;8.20;99.90;;;;;;4983672;28;20045;-85
2023/11/13 09:12:41;;;;;;;3.53;1.33;;;8.30;99.90;;;;;;4983741;28;20090;-90
2023/11/13 09:15:14;;;;;;;2.13;1.30;;;8.40;99.90;;;;;;4992269;28;20383;-88
2023/11/13 09:17:48;;;;;;;3.38;1.48;;;8.50;99.90;;;;;;4962413;28;20031;-87
2023/11/13 09:20:16;;;;;;;3.35;0.93;;;8.50;99.90;;;;;;4963052;28;20042;-88
2023/11/13 09:22:43;;;;;;;2.72;0.80;;;8.60;99.90;;;;;;4976362;28;20074;-87
2023/11/13 09:25:13;;;;;;;4.53;0.80;;;8.70;99.90;;;;;;4967702;28;20030;-89
2023/11/13 09:27:43;;;;;;;3.08;0.80;;;8.90;99.90;;;;;;4979285;28;20035;-87
2023/11/13 09:30:10;;;;;;;3.23;0.90;;;8.80;99.90;;;;;;4965325;28;20423;-86
2023/11/13 09:32:45;;;;;;;3.72;0.85;;;8.90;99.90;;;;;;4980271;28;20060;-84
2023/11/13 09:35:19;;;;;;;2.72;0.88;;;8.90;99.90;;;;;;4963036;28;20034;-88
2023/11/13 09:37:49;;;;;;;1.98;0.60;;;8.90;99.90;;;;;;4966651;28;20034;-88
2023/11/13 09:40:16;;;;;;;1.70;0.75;;;9.00;99.90;;;;;;4977312;28;20030;-87
2023/11/13 09:43:12;;;;;;;4.05;0.88;;;9.00;99.90;;;;;;4977962;28;20374;-85
2023/11/13 09:45:44;;;;;;;2.20;0.50;;;9.10;99.90;;;;;;4978854;28;20034;-88
2023/11/13 09:48:16;;;;;;;1.30;0.50;;;9.10;99.90;;;;;;4990179;28;20091;-86
2023/11/13 09:50:44;;;;;;;2.58;0.60;;;9.10;99.90;;;;;;4965636;28;20046;-89
2023/11/13 09:53:15;;;;;;;2.30;0.60;;;9.20;99.90;;;;;;4963522;28;20073;-89
2023/11/13 09:55:42;;;;;;;3.90;0.85;;;9.20;99.90;;;;;;4961300;28;20089;-86
2023/11/13 09:58:10;;;;;;;3.25;0.50;;;9.30;99.90;;;;;;4967027;28;20600;-87
2023/11/13 10:00:36;;;;;;;4.38;0.60;;;9.30;99.90;;;;;;4977862;28;20547;-86
2023/11/13 10:03:02;;;;;;;1.88;0.55;;;9.40;99.90;;;;;;4992547;28;20467;-87
2023/11/13 10:05:31;;;;;;;4.55;0.70;;;9.50;99.90;;;;;;4962442;28;20143;-89
2023/11/13 10:07:57;;;;;;;3.58;0.50;;;9.40;99.90;;;;;;4975261;28;20030;-86
2023/11/13 10:10:26;;;;;;;2.47;0.68;;;9.50;99.90;;;;;;4974827;28;20046;-87
2023/11/13 10:12:54;;;;;;;3.15;0.40;;;9.50;99.90;;;;;;4965360;28;20089;-86
2023/11/13 10:15:24;;;;;;;2.13;0.40;;;9.50;99.90;;;;;;4976014;28;20030;-86
2023/11/13 10:17:52;;;;;;;2.78;0.40;;;9.60;99.90;;;;;;4975246;28;20034;-87
2023/11/13 10:20:19;;;;;;;3.08;0.55;;;9.70;99.90;;;;;;4979818;28;20098;-85
2023/11/13 10:23:06;;;;;;;3.63;0.75;;;9.70;99.90;;;;;;4962907;28;20026;-85
2023/11/13 10:25:52;;;;;;;3.38;0.80;;;9.70;99.90;;;;;;4991787;28;20546;-86
2023/11/13 10:28:22;;;;;;;3.00;0.30;;;9.70;99.90;;;;;;4981472;28;20422;-87
2023/11/13 10:30:58;;;;;;;2.08;0.30;;;9.70;99.90;;;;;;4966608;28;20039;-86
2023/11/13 10:33:24;;;;;;;1.80;0.40;;;9.70;99.90;;;;;;4976110;28;20045;-87
2023/11/13 10:35:51;;;;;;;2.05;0.30;;;9.70;99.90;;;;;;4978581;28;20482;-85
2023/11/13 10:38:21;;;;;;;2.78;0.20;;;9.70;99.90;;;;;;4991156;28;20034;-88
2023/11/13 10:41:03;;;;;;;3.00;0.20;;;9.70;99.90;;;;;;4992544;28;20030;-86
2023/11/13 10:43:39;;;;;;;1.35;0.20;;;9.70;99.90;;;;;;4975677;28;20049;-86
2023/11/13 10:46:06;;;;;;;3.47;0.25;;;9.70;99.90;;;;;;4979247;28;20078;-85
2023/11/13 10:48:39;;;;;;;1.13;0.20;;;9.70;99.90;;;;;;4959546;28;20219;-85
2023/11/13 10:51:06;;;;;;;2.53;0.38;;;9.80;99.90;;;;;;4966391;28;20053;-87
2023/11/13 10:53:39;;;;;;;2.78;0.15;;;9.80;99.90;;;;;;4958394;28;20031;-85
2023/11/13 10:56:06;;;;;;;1.38;0.20;;;9.80;99.90;;;;;;4962053;28;20467;-87
2023/11/13 10:58:32;;;;;;;1.83;0.20;;;9.80;99.90;;;;;;4977986;28;20100;-88
2023/11/13 11:01:01;;;;;;;1.13;0.20;;;9.80;99.90;;;;;;4965111;28;20030;-87
2023/11/13 11:03:30;;;;;;;0.57;0.10;;;9.80;99.90;;;;;;4983369;28;20033;-89
2023/11/13 11:06:03;;;;;;;1.00;0.20;;;9.80;99.90;;;;;;4959081;28;20316;-85
2023/11/13 11:08:29;;;;;;;1.15;0.10;;;9.80;99.90;;;;;;4938217;28;20031;-88
2023/11/13 11:10:56;;;;;;;0.93;0.20;;;9.80;99.90;;;;;;4955624;28;20039;-88
2023/11/13 11:13:22;;;;;;;0.38;0.10;;;9.80;99.90;;;;;;4940755;28;20034;-89
2023/11/13 11:15:59;;;;;;;1.38;0.15;;;9.80;99.90;;;;;;4945794;28;20060;-86
2023/11/13 11:18:34;;;;;;;1.45;0.10;;;9.80;99.90;;;;;;4955295;28;20051;-88
2023/11/13 11:21:08;;;;;;;1.05;0.10;;;9.80;99.90;;;;;;4972581;28;20031;-85
2023/11/13 11:23:44;;;;;;;0.60;0.10;;;9.80;99.90;;;;;;4942498;28;20464;-84
2023/11/13 11:26:10;;;;;;;0.90;0.10;;;9.80;99.90;;;;;;4939089;28;20035;-84
2023/11/13 11:28:41;;;;;;;0.63;0.10;;;9.80;99.90;;;;;;4954435;28;20093;-81
2023/11/13 11:31:33;;;;;;;0.63;0.20;;;9.80;99.90;;;;;;4958426;28;20073;-83
2023/11/13 11:34:00;;;;;;;0.60;0.10;;;9.80;99.90;;;;;;4960874;28;20042;-84
2023/11/13 11:36:30;;;;;;;0.25;0.10;;;9.80;99.90;;;;;;4941768;28;20030;-85
2023/11/13 11:39:21;;;;;;;0.60;0.15;;;9.80;99.90;;;;;;4957232;28;20031;-81
2023/11/13 11:41:51;;;;;;;0.38;0.10;;;9.90;99.90;;;;;;4956149;28;20042;-87
2023/11/13 11:44:28;;;;;;;0.43;0.30;;;9.90;99.90;;;;;;4956427;28;20023;-87
2023/11/13 11:46:54;;;;;;;0.98;0.25;;;9.90;99.90;;;;;;4955002;28;20027;-83
2023/11/13 11:49:28;;;;;;;0.80;0.20;;;10.00;99.90;;;;;;4955317;28;20594;-89
2023/11/13 11:51:56;;;;;;;1.08;0.30;;;10.00;99.90;;;;;;4937306;28;20495;-85
2023/11/13 11:54:22;;;;;;;1.30;0.30;;;10.00;99.90;;;;;;4956632;28;20039;-86
2023/11/13 11:57:14;;;;;;;2.00;0.20;;;10.10;99.90;;;;;;4946709;28;20035;-89
2023/11/13 11:59:40;;;;;;;1.17;0.22;;;10.10;99.90;;;;;;4939740;28;20049;-88
2023/11/13 12:02:06;;;;;;;1.30;0.30;;;10.10;99.90;;;;;;4943937;28;20065;-91
2023/11/13 12:04:32;;;;;;;0.88;0.20;;;10.10;99.90;;;;;;4944402;28;20059;-88
2023/11/13 12:07:09;;;;;;;1.10;0.30;;;10.20;99.90;;;;;;4954219;28;20023;-88
2023/11/13 12:09:44;;;;;;;1.27;0.47;;;10.20;99.90;;;;;;4953155;28;20097;-87
2023/11/13 12:12:11;;;;;;;0.65;0.30;;;10.30;99.90;;;;;;4939103;28;20094;-86
2023/11/13 12:14:37;;;;;;;1.88;0.20;;;10.40;99.90;;;;;;4957118;28;20137;-91
2023/11/13 12:17:07;;;;;;;1.15;0.30;;;10.40;99.90;;;;;;4959470;28;20112;-85
2023/11/13 12:19:33;;;;;;;1.30;0.20;;;10.50;99.90;;;;;;4968686;28;20041;-87
2023/11/13 12:21:58;;;;;;;1.30;0.20;;;10.50;99.90;;;;;;4945245;28;20027;-88
2023/11/13 12:24:25;;;;;;;1.20;0.30;;;10.60;99.90;;;;;;4968243;28;20048;-85
2023/11/13 12:26:56;;;;;;;1.02;0.22;;;10.60;99.90;;;;;;4953684;28;20066;-86
2023/11/13 12:29:22;;;;;;;2.30;0.30;;;10.80;99.90;;;;;;4937689;28;20094;-90
2023/11/13 12:31:53;;;;;;;1.33;0.43;;;10.90;99.90;;;;;;4945654;28;20057;-89
2023/11/13 12:34:20;;;;;;;3.03;0.60;;;11.00;99.90;;;;;;4960578;28;20398;-86
2023/11/13 12:36:47;;;;;;;1.70;0.40;;;11.30;99.90;;;;;;4947565;28;20384;-85
2023/11/13 12:39:22;;;;;;;3.08;0.40;;;11.30;99.90;;;;;;4944112;28;20447;-86
2023/11/13 12:41:52;;;;;;;2.75;0.40;;;11.30;99.90;;;;;;4954282;28;20031;-85
2023/11/13 12:44:20;;;;;;;2.85;0.40;;;11.40;99.90;;;;;;4958080;28;20031;-89
2023/11/13 12:46:50;;;;;;;3.22;0.50;;;11.50;99.90;;;;;;4941487;28;20051;-87
2023/11/13 12:49:16;;;;;;;3.75;0.65;;;11.60;99.90;;;;;;4971585;28;20033;-86
2023/11/13 12:51:47;;;;;;;2.38;0.57;;;11.70;99.90;;;;;;4972654;28;20059;-86
2023/11/13 12:54:14;;;;;;;3.35;0.50;;;11.90;99.90;;;;;;4946231;28;20494;-85
2023/11/13 12:56:48;;;;;;;6.53;0.77;;;11.90;99.90;;;;;;4945236;28;20082;-87